createdAt,value
2022-08-22T00:02:30.486Z,2.67
2022-08-22T00:02:42.776Z,2.17
2022-08-22T00:02:45.054Z,1.92
2022-08-22T00:02:46.732Z,2.45
2022-08-22T00:02:47.466Z,1.70
2022-08-22T00:02:49.790Z,2.10
2022-08-22T00:03:09.034Z,2.20
2022-08-22T00:05:09.740Z,2.20
2022-08-22T00:07:48.279Z,2.53
2022-08-22T00:10:38.248Z,2.30
2022-08-22T00:13:15.365Z,2.40
2022-08-22T00:15:55.752Z,2.45
2022-08-22T00:18:42.024Z,2.45
2022-08-22T00:21:21.941Z,2.33
2022-08-22T00:24:01.715Z,2.40
2022-08-22T00:26:45.618Z,2.20
2022-08-22T00:29:22.677Z,2.30
2022-08-22T00:31:56.411Z,2.40
2022-08-22T00:34:43.340Z,2.22
2022-08-22T00:37:20.580Z,2.53
2022-08-22T00:39:57.427Z,2.40
2022-08-22T00:42:44.292Z,2.55
2022-08-22T00:45:44.428Z,2.58
2022-08-22T00:48:35.274Z,2.70
2022-08-22T00:51:09.744Z,2.50
2022-08-22T00:54:06.843Z,2.72
2022-08-22T00:57:11.830Z,2.50
2022-08-22T00:59:57.114Z,2.38
2022-08-22T01:02:41.538Z,2.65
2022-08-22T01:05:17.229Z,2.72
2022-08-22T01:08:24.282Z,2.50
2022-08-22T01:11:24.854Z,2.70
2022-08-22T01:14:34.801Z,2.55
2022-08-22T01:17:32.579Z,2.65
2022-08-22T01:20:26.852Z,2.90
2022-08-22T01:23:31.064Z,2.72
2022-08-22T01:26:42.704Z,2.67
2022-08-22T01:29:36.146Z,2.95
2022-08-22T01:32:35.464Z,2.53
2022-08-22T01:35:36.220Z,2.80
2022-08-22T01:38:40.280Z,2.85
2022-08-22T01:41:20.183Z,2.65
2022-08-22T01:44:18.817Z,2.75
2022-08-22T01:47:11.884Z,2.63
2022-08-22T01:49:48.665Z,2.78
2022-08-22T01:52:34.019Z,2.60
2022-08-22T01:55:21.311Z,2.70
2022-08-22T01:57:50.820Z,2.30
2022-08-22T02:00:35.087Z,2.50
2022-08-22T02:03:27.496Z,3.08
2022-08-22T02:06:03.420Z,2.70
2022-08-22T02:08:58.977Z,2.70
2022-08-22T02:11:46.967Z,2.35
2022-08-22T02:14:17.092Z,2.83
2022-08-22T02:16:48.221Z,2.92
2022-08-22T02:19:14.601Z,2.78
2022-08-22T02:22:03.540Z,2.63
2022-08-22T02:24:33.055Z,2.67
2022-08-22T02:27:10.123Z,3.33
2022-08-22T02:32:45.817Z,2.90
2022-08-22T02:35:25.840Z,2.85
2022-08-22T02:38:21.350Z,2.90
2022-08-22T02:41:04.777Z,2.90
2022-08-22T02:43:49.533Z,3.13
2022-08-22T02:46:16.360Z,2.95
2022-08-22T02:49:08.934Z,2.90
2022-08-22T02:51:53.652Z,2.90
2022-08-22T02:54:27.737Z,3.03
2022-08-22T02:57:19.680Z,2.88
2022-08-22T03:00:31.091Z,2.70
2022-08-22T03:03:14.312Z,2.75
2022-08-22T03:05:50.934Z,2.75
2022-08-22T03:08:24.543Z,3.30
2022-08-22T03:11:10.023Z,3.08
2022-08-22T03:14:13.807Z,2.72
2022-08-22T03:16:46.090Z,2.97
2022-08-22T03:19:21.197Z,3.00
2022-08-22T03:22:15.076Z,3.03
2022-08-22T03:24:55.494Z,2.80
2022-08-22T03:27:32.595Z,3.30
2022-08-22T03:30:32.205Z,3.08
2022-08-22T03:33:16.559Z,3.28
2022-08-22T03:35:46.009Z,3.00
2022-08-22T03:38:26.134Z,2.75
2022-08-22T03:41:06.579Z,3.50
2022-08-22T03:43:48.812Z,3.15
2022-08-22T03:46:21.117Z,3.10
2022-08-22T03:49:06.238Z,3.42
2022-08-22T03:51:38.431Z,3.42
2022-08-22T03:54:21.739Z,3.53
2022-08-22T03:56:56.034Z,3.22
2022-08-22T03:59:42.577Z,3.53
2022-08-22T04:02:43.167Z,2.97
2022-08-22T04:05:16.474Z,3.33
2022-08-22T04:08:11.247Z,3.00
2022-08-22T04:11:05.159Z,3.40
2022-08-22T04:13:43.288Z,3.40
2022-08-22T04:16:21.751Z,3.13
2022-08-22T04:19:03.918Z,3.08
2022-08-22T04:22:13.639Z,2.95
2022-08-22T04:24:53.443Z,3.13
2022-08-22T04:27:47.203Z,3.20
2022-08-22T04:30:16.340Z,3.10
2022-08-22T04:32:47.288Z,3.20
2022-08-22T04:35:20.102Z,3.47
2022-08-22T04:38:02.053Z,3.30
2022-08-22T04:40:45.131Z,3.42
2022-08-22T04:43:21.582Z,3.35
2022-08-22T04:45:54.994Z,3.65
2022-08-22T04:48:38.956Z,3.15
2022-08-22T04:51:22.165Z,3.10
2022-08-22T04:53:48.586Z,3.42
2022-08-22T04:56:35.828Z,3.30
2022-08-22T04:59:16.700Z,3.10
2022-08-22T05:01:47.080Z,3.00
2022-08-22T05:04:19.992Z,3.40
2022-08-22T05:06:58.086Z,3.28
2022-08-22T05:09:28.659Z,3.10
2022-08-22T05:12:00.233Z,3.50
2022-08-22T05:14:54.497Z,3.40
2022-08-22T05:17:26.831Z,2.90
2022-08-22T05:19:57.500Z,2.63
2022-08-22T05:22:31.900Z,3.22
2022-08-22T05:25:03.259Z,3.40
2022-08-22T05:27:34.616Z,3.60
2022-08-22T05:30:09.765Z,3.53
2022-08-22T05:32:57.768Z,3.70
2022-08-22T05:35:40.702Z,3.33
2022-08-22T05:38:11.947Z,3.40
2022-08-22T05:40:38.990Z,3.40
2022-08-22T05:43:09.888Z,3.25
2022-08-22T05:45:39.563Z,3.50
2022-08-22T05:48:16.950Z,3.35
2022-08-22T05:50:55.160Z,3.35
2022-08-22T05:53:39.714Z,3.22
2022-08-22T05:56:32.408Z,3.17
2022-08-22T05:59:08.455Z,3.17
2022-08-22T06:02:16.510Z,2.88
2022-08-22T06:04:58.660Z,3.08
2022-08-22T06:07:31.647Z,2.78
2022-08-22T06:10:06.998Z,2.58
2022-08-22T06:12:44.720Z,2.53
2022-08-22T06:15:21.276Z,2.80
2022-08-22T06:17:50.822Z,3.08
2022-08-22T06:20:34.831Z,2.80
2022-08-22T06:23:03.020Z,2.90
2022-08-22T06:25:37.532Z,2.92
2022-08-22T06:28:08.413Z,3.03
2022-08-22T06:30:38.128Z,3.10
2022-08-22T06:33:12.505Z,3.13
2022-08-22T06:36:06.161Z,2.67
2022-08-22T06:38:58.239Z,2.78
2022-08-22T06:41:29.359Z,2.50
2022-08-22T06:43:57.648Z,3.30
2022-08-22T06:46:28.987Z,3.05
2022-08-22T06:49:00.213Z,2.50
2022-08-22T06:51:29.462Z,2.47
2022-08-22T06:54:01.655Z,2.75
2022-08-22T06:56:35.713Z,2.47
2022-08-22T06:59:07.838Z,2.65
2022-08-22T07:01:40.904Z,2.63
2022-08-22T07:04:11.265Z,2.50
2022-08-22T07:06:44.115Z,2.83
2022-08-22T07:09:47.072Z,2.53
2022-08-22T07:12:19.326Z,2.60
2022-08-22T07:14:52.172Z,2.65
2022-08-22T07:17:27.850Z,2.42
2022-08-22T07:20:00.027Z,2.72
2022-08-22T07:22:30.788Z,2.50
2022-08-22T07:25:02.792Z,2.50
2022-08-22T07:27:29.165Z,2.40
2022-08-22T07:30:06.798Z,2.47
2022-08-22T07:33:25.769Z,2.40
2022-08-22T07:35:59.015Z,2.53
2022-08-22T07:38:43.710Z,2.35
2022-08-22T07:41:20.663Z,2.60
2022-08-22T07:43:52.294Z,2.40
2022-08-22T07:46:39.119Z,2.67
2022-08-22T07:49:23.265Z,2.38
2022-08-22T07:51:54.896Z,2.72
2022-08-22T07:54:27.106Z,2.78
2022-08-22T07:57:21.154Z,2.50
2022-08-22T07:59:52.392Z,2.55
2022-08-22T08:02:20.473Z,2.90
2022-08-22T08:04:50.825Z,2.38
2022-08-22T08:07:22.438Z,2.95
2022-08-22T08:10:13.058Z,2.65
2022-08-22T08:12:57.889Z,2.72
2022-08-22T08:15:31.844Z,2.60
2022-08-22T08:18:06.078Z,2.97
2022-08-22T08:20:36.180Z,2.28
2022-08-22T08:23:05.825Z,2.50
2022-08-22T08:25:53.633Z,2.58
2022-08-22T08:28:37.935Z,2.85
2022-08-22T08:31:31.940Z,2.47
2022-08-22T08:34:32.331Z,2.67
2022-08-22T08:37:17.180Z,2.28
2022-08-22T08:39:50.647Z,2.40
2022-08-22T08:42:55.295Z,2.58
2022-08-22T08:45:38.599Z,2.60
2022-08-22T08:48:04.991Z,2.67
2022-08-22T08:50:50.075Z,2.47
2022-08-22T08:53:27.839Z,2.38
2022-08-22T08:56:19.596Z,2.53
2022-08-22T08:59:16.651Z,2.50
2022-08-22T09:02:27.138Z,2.60
2022-08-22T09:05:35.041Z,2.47
2022-08-22T09:08:07.418Z,2.60
2022-08-22T09:10:57.167Z,2.63
2022-08-22T09:14:05.034Z,2.72
2022-08-22T09:16:57.849Z,2.67
2022-08-22T09:19:43.072Z,2.70
2022-08-22T09:22:59.968Z,2.58
2022-08-22T09:25:42.677Z,2.60
2022-08-22T09:28:24.108Z,2.63
2022-08-22T09:31:33.014Z,2.50
2022-08-22T09:34:23.999Z,2.65
2022-08-22T09:37:01.020Z,2.80
2022-08-22T09:39:50.534Z,2.22
2022-08-22T09:42:23.640Z,2.50
2022-08-22T09:45:20.028Z,3.08
2022-08-22T09:48:07.495Z,2.67
2022-08-22T09:51:31.792Z,2.60
2022-08-22T09:54:02.256Z,2.95
2022-08-22T09:56:33.675Z,2.60
2022-08-22T09:59:06.811Z,3.08
2022-08-22T10:01:43.028Z,2.67
2022-08-22T10:04:37.426Z,2.95
2022-08-22T10:07:40.194Z,2.83
2022-08-22T10:10:31.300Z,2.70
2022-08-22T10:13:10.569Z,2.60
2022-08-22T10:15:46.629Z,2.88
2022-08-22T10:18:37.214Z,2.72
2022-08-22T10:23:54.503Z,2.45
2022-08-22T10:26:38.915Z,2.90
2022-08-22T10:29:42.769Z,2.45
2022-08-22T10:32:31.932Z,2.60
2022-08-22T10:35:13.711Z,2.35
2022-08-22T10:37:55.662Z,2.38
2022-08-22T10:40:34.284Z,2.55
2022-08-22T10:43:19.977Z,2.67
2022-08-22T10:45:51.107Z,2.33
2022-08-22T10:48:58.403Z,2.80
2022-08-22T10:51:31.736Z,2.90
2022-08-22T10:54:07.377Z,2.53
2022-08-22T10:56:43.855Z,2.60
2022-08-22T10:59:43.739Z,3.17
2022-08-22T11:02:21.626Z,2.80
2022-08-22T11:04:48.020Z,2.97
2022-08-22T11:07:48.433Z,3.00
2022-08-22T11:10:24.308Z,2.70
2022-08-22T11:13:08.583Z,2.40
2022-08-22T11:15:46.725Z,2.63
2022-08-22T11:18:58.042Z,2.40
2022-08-22T11:21:41.082Z,2.53
2022-08-22T11:24:34.814Z,2.65
2022-08-22T11:27:40.730Z,2.53
2022-08-22T11:30:18.544Z,2.80
2022-08-22T11:33:37.396Z,2.85
2022-08-22T11:36:36.248Z,2.38
2022-08-22T11:39:03.553Z,2.70
2022-08-22T11:41:56.094Z,2.72
2022-08-22T11:44:29.641Z,2.60
2022-08-22T11:46:58.880Z,2.97
2022-08-22T11:49:33.097Z,2.55
2022-08-22T11:52:20.307Z,2.50
2022-08-22T11:55:11.665Z,2.60
2022-08-22T11:57:44.212Z,2.60
2022-08-22T12:00:36.078Z,2.58
2022-08-22T12:03:25.552Z,2.70
2022-08-22T12:06:06.092Z,2.50
2022-08-22T12:08:34.268Z,2.65
2022-08-22T12:11:25.243Z,2.50
2022-08-22T12:14:04.038Z,2.47
2022-08-22T12:17:51.136Z,2.42
2022-08-22T12:20:19.723Z,2.45
2022-08-22T12:23:15.962Z,2.60
2022-08-22T12:25:55.449Z,3.63
2022-08-22T12:28:34.216Z,2.75
2022-08-22T12:31:05.475Z,2.90
2022-08-22T12:33:57.322Z,2.50
2022-08-22T12:36:58.909Z,2.50
2022-08-22T12:39:56.115Z,3.03
2022-08-22T12:42:44.814Z,2.60
2022-08-22T12:45:30.903Z,2.50
2022-08-22T12:48:35.068Z,2.60
2022-08-22T12:51:39.568Z,2.70
2022-08-22T12:54:44.078Z,2.60
2022-08-22T12:57:25.205Z,2.45
2022-08-22T13:00:35.456Z,2.60
2022-08-22T13:03:22.018Z,2.40
2022-08-22T13:05:56.865Z,2.40
2022-08-22T13:08:38.323Z,2.90
2022-08-22T13:11:12.449Z,2.80
2022-08-22T13:13:56.574Z,2.22
2022-08-22T13:16:26.154Z,2.17
2022-08-22T13:19:08.057Z,2.45
2022-08-22T13:21:47.209Z,2.30
2022-08-22T13:24:22.755Z,2.45
2022-08-22T13:27:13.811Z,2.58
2022-08-22T13:29:58.849Z,2.50
2022-08-22T13:32:33.164Z,2.40
2022-08-22T13:35:01.130Z,2.28
2022-08-22T13:37:41.495Z,2.40
2022-08-22T13:40:14.739Z,2.35
2022-08-22T13:42:54.150Z,2.42
2022-08-22T13:45:28.555Z,2.78
2022-08-22T13:48:03.753Z,2.80
2022-08-22T13:50:37.041Z,2.40
2022-08-22T13:54:00.802Z,2.67
2022-08-22T13:56:47.184Z,2.70
2022-08-22T13:59:47.487Z,2.20
2022-08-22T14:02:30.851Z,2.80
2022-08-22T14:05:04.246Z,2.63
2022-08-22T14:07:40.496Z,2.40
2022-08-22T14:10:15.193Z,2.70
2022-08-22T14:12:55.375Z,2.38
2022-08-22T14:15:32.111Z,2.42
2022-08-22T14:18:18.478Z,2.50
2022-08-22T14:20:47.546Z,2.50
2022-08-22T14:23:27.062Z,2.70
2022-08-22T14:25:55.367Z,2.40
2022-08-22T14:28:35.452Z,2.70
2022-08-22T14:31:13.300Z,2.67
2022-08-22T14:33:48.472Z,2.58
2022-08-22T14:36:21.115Z,2.50
2022-08-22T14:39:01.762Z,2.50
2022-08-22T14:41:52.509Z,2.78
2022-08-22T14:44:33.110Z,2.50
2022-08-22T14:47:03.783Z,2.70
2022-08-22T14:49:35.176Z,2.50
2022-08-22T14:52:19.699Z,2.50
2022-08-22T14:54:46.905Z,2.30
2022-08-22T14:57:19.977Z,2.40
2022-08-22T14:59:50.609Z,2.25
2022-08-22T15:02:30.856Z,2.33
2022-08-22T15:05:01.534Z,2.58
2022-08-22T15:07:32.758Z,2.47
2022-08-22T15:10:22.773Z,2.50
2022-08-22T15:12:53.879Z,2.40
2022-08-22T15:15:53.440Z,2.60
2022-08-22T15:18:28.252Z,2.90
2022-08-22T15:21:08.898Z,2.42
2022-08-22T15:23:44.979Z,2.78
2022-08-22T15:26:22.663Z,2.53
2022-08-22T15:28:57.116Z,2.28
2022-08-22T15:31:24.364Z,2.40
2022-08-22T15:33:51.582Z,2.40
2022-08-22T15:36:26.949Z,2.60
2022-08-22T15:38:56.604Z,2.67
2022-08-22T15:41:36.300Z,2.60
2022-08-22T15:44:14.952Z,2.67
2022-08-22T15:47:03.019Z,3.80
2022-08-22T15:49:34.535Z,2.83
2022-08-22T15:52:01.107Z,2.85
2022-08-22T15:54:46.995Z,2.65
2022-08-22T15:57:23.782Z,2.88
2022-08-22T16:00:01.059Z,2.70
2022-08-22T16:02:36.267Z,2.80
2022-08-22T16:05:08.979Z,2.92
2022-08-22T16:08:02.616Z,2.92
2022-08-22T16:10:35.067Z,2.75
2022-08-22T16:13:38.074Z,2.50
2022-08-22T16:16:13.327Z,2.67
2022-08-22T16:18:39.774Z,2.70
2022-08-22T16:21:22.715Z,2.55
2022-08-22T16:23:56.550Z,3.78
2022-08-22T16:26:42.880Z,2.70
2022-08-22T16:29:17.826Z,3.70
2022-08-22T16:31:44.540Z,3.23
2022-08-22T16:34:16.856Z,2.90
2022-08-22T16:37:12.435Z,2.50
2022-08-22T16:39:40.815Z,2.80
2022-08-22T16:42:13.447Z,2.75
2022-08-22T16:44:45.967Z,2.85
2022-08-22T16:47:30.091Z,2.80
2022-08-22T16:50:18.284Z,3.00
2022-08-22T16:53:05.094Z,2.70
2022-08-22T16:58:44.977Z,2.50
2022-08-22T17:01:21.318Z,2.90
2022-08-22T17:04:14.793Z,2.22
2022-08-22T17:07:01.746Z,2.70
2022-08-22T17:12:09.917Z,2.88
2022-08-22T17:14:48.435Z,2.50
2022-08-22T17:17:14.823Z,2.53
2022-08-22T17:20:10.701Z,2.42
2022-08-22T17:23:08.229Z,2.85
2022-08-22T17:28:33.524Z,2.75
2022-08-22T17:31:26.495Z,2.70
2022-08-22T17:34:02.247Z,2.70
2022-08-22T17:36:53.021Z,2.63
2022-08-22T17:39:33.871Z,2.60
2022-08-22T17:42:21.127Z,2.90
2022-08-22T17:45:15.829Z,2.50
2022-08-22T17:47:55.383Z,3.30
2022-08-22T17:50:34.108Z,2.97
2022-08-22T17:53:10.996Z,2.95
2022-08-22T17:56:02.958Z,2.70
2022-08-22T17:58:44.048Z,3.05
2022-08-22T18:01:33.612Z,2.67
2022-08-22T18:04:04.989Z,2.58
2022-08-22T18:06:36.039Z,3.17
2022-08-22T18:09:16.582Z,2.70
2022-08-22T18:12:18.463Z,2.80
2022-08-22T18:14:51.371Z,2.80
2022-08-22T18:17:21.677Z,3.40
2022-08-22T18:20:09.150Z,3.00
2022-08-22T18:22:48.484Z,3.22
2022-08-22T18:25:17.741Z,3.22
2022-08-22T18:27:50.102Z,2.75
2022-08-22T18:30:38.227Z,3.28
2022-08-22T18:33:24.970Z,2.67
2022-08-22T18:36:20.034Z,3.22
2022-08-22T18:38:52.295Z,2.90
2022-08-22T18:41:42.918Z,3.20
2022-08-22T18:44:21.913Z,3.00
2022-08-22T18:46:51.961Z,2.90
2022-08-22T18:49:19.404Z,2.95
2022-08-22T18:52:11.711Z,3.10
2022-08-22T18:54:49.660Z,3.42
2022-08-22T18:58:01.283Z,3.08
2022-08-22T19:01:04.885Z,2.95
2022-08-22T19:03:40.433Z,3.38
2022-08-22T19:06:19.021Z,3.00
2022-08-22T19:09:13.749Z,3.15
2022-08-22T19:12:01.666Z,3.03
2022-08-22T19:14:55.876Z,3.20
2022-08-22T19:18:04.119Z,3.03
2022-08-22T19:23:41.532Z,3.63
2022-08-22T19:26:28.209Z,3.05
2022-08-22T19:29:02.273Z,3.08
2022-08-22T19:31:41.778Z,3.00
2022-08-22T19:34:19.017Z,3.13
2022-08-22T19:36:46.418Z,2.78
2022-08-22T19:39:41.611Z,3.00
2022-08-22T19:42:19.983Z,3.05
2022-08-22T19:44:48.147Z,2.90
2022-08-22T19:47:17.404Z,3.20
2022-08-22T19:49:56.055Z,3.28
2022-08-22T19:52:44.197Z,3.08
2022-08-22T19:55:28.895Z,3.35
2022-08-22T19:58:04.427Z,3.13
2022-08-22T20:00:41.081Z,3.03
2022-08-22T20:05:56.892Z,3.33
2022-08-22T20:08:50.408Z,2.95
2022-08-22T20:11:42.254Z,3.58
2022-08-22T20:14:16.863Z,3.45
2022-08-22T20:17:13.179Z,3.70
2022-08-22T20:20:16.472Z,3.15
2022-08-22T20:22:46.907Z,3.03
2022-08-22T20:25:42.958Z,3.13
2022-08-22T20:28:24.185Z,2.85
2022-08-22T20:30:59.670Z,2.88
2022-08-22T20:33:45.975Z,2.95
2022-08-22T20:36:28.453Z,2.95
2022-08-22T20:39:02.912Z,3.00
2022-08-22T20:41:35.532Z,3.20
2022-08-22T20:44:33.262Z,3.22
2022-08-22T20:47:07.811Z,3.47
2022-08-22T20:49:43.071Z,2.90
2022-08-22T20:52:21.592Z,3.20
2022-08-22T20:55:05.256Z,3.85
2022-08-22T20:57:33.211Z,3.17
2022-08-22T21:00:11.095Z,3.33
2022-08-22T21:02:41.101Z,3.53
2022-08-22T21:05:13.612Z,2.95
2022-08-22T21:07:45.973Z,3.58
2022-08-22T21:10:42.909Z,3.65
2022-08-22T21:13:25.333Z,3.23
2022-08-22T21:15:53.344Z,3.38
2022-08-22T21:18:35.447Z,3.13
2022-08-22T21:21:17.551Z,3.40
2022-08-22T21:24:00.745Z,3.17
2022-08-22T21:26:29.381Z,2.95
2022-08-22T21:29:03.606Z,2.97
2022-08-22T21:31:35.308Z,3.10
2022-08-22T21:34:03.328Z,2.83
2022-08-22T21:36:31.672Z,3.17
2022-08-22T21:39:05.738Z,3.00
2022-08-22T21:41:43.091Z,3.13
2022-08-22T21:44:17.659Z,3.15
2022-08-22T21:46:44.427Z,3.40
2022-08-22T21:49:22.940Z,3.42
2022-08-22T21:51:50.277Z,3.10
2022-08-22T21:54:25.643Z,3.33
2022-08-22T21:56:55.242Z,3.22
2022-08-22T21:59:43.241Z,3.42
2022-08-22T22:02:31.308Z,3.30
2022-08-22T22:04:59.282Z,2.90
2022-08-22T22:07:26.385Z,3.22
2022-08-22T22:09:54.665Z,2.90
2022-08-22T22:12:23.447Z,3.35
2022-08-22T22:14:50.439Z,3.17
2022-08-22T22:17:18.933Z,3.38
2022-08-22T22:19:46.255Z,3.40
2022-08-22T22:22:12.794Z,3.28
2022-08-22T22:24:39.513Z,3.30
2022-08-22T22:27:06.905Z,3.40
2022-08-22T22:29:34.803Z,3.38
2022-08-22T22:32:01.264Z,3.42
2022-08-22T22:34:27.781Z,3.53
2022-08-22T22:36:54.821Z,3.30
2022-08-22T22:39:21.300Z,3.60
2022-08-22T22:41:48.922Z,3.47
2022-08-22T22:44:15.423Z,3.47
2022-08-22T22:49:08.424Z,3.97
2022-08-22T22:51:34.892Z,3.53
2022-08-22T22:56:28.484Z,3.30
2022-08-22T22:59:00.732Z,3.35
2022-08-22T23:02:00.069Z,3.47
2022-08-22T23:04:26.515Z,3.13
2022-08-22T23:06:52.941Z,3.15
2022-08-22T23:11:45.773Z,3.60
2022-08-22T23:16:40.500Z,3.30
2022-08-22T23:19:12.506Z,3.22
2022-08-22T23:21:39.735Z,3.90
2022-08-22T23:24:06.835Z,3.63
2022-08-22T23:26:33.453Z,3.42
2022-08-22T23:29:02.648Z,3.85
2022-08-22T23:31:31.783Z,3.88
2022-08-22T23:34:19.291Z,3.47
2022-08-22T23:36:47.165Z,3.47
2022-08-22T23:39:16.253Z,3.45
2022-08-22T23:41:44.332Z,3.45
2022-08-22T23:44:16.222Z,3.72
2022-08-22T23:46:43.150Z,3.60
2022-08-22T23:49:10.243Z,3.28
2022-08-22T23:51:37.418Z,3.60
2022-08-22T23:54:04.887Z,3.47
2022-08-22T23:56:35.311Z,3.65
2022-08-22T23:59:05.567Z,3.75
